ESGGESSV

Guest
Details From ESGG - Goteborg Landvetter
To ESSV - Visby
Flight Number -
Tags generated
Created
Modified
Stats Distance 195 nm / 361 km
Max Altitude 21,500 ft / 6,553 m
Waypoints 3
Social Downloads 0
Likes 0
Share VATSIM

Download

Looking for another format? Having issues loading an existing format? Contact us
Advertisement - Login to hide

Notes

Basic altitude profile: - Ascent Rate: 1000ft/min - Ascent Speed: 250kts - Cruise Altitude: 20000ft - Cruise Speed: 420kts - Descent Rate: 1500ft/min - Descent Speed: 250kts Options: - Use NATs: yes - Use PACOTS: yes - Use low airways: yes - Use high airways: yes

Route

ESGG MOKNI ESSV

ID Type Via Altitude Latitude Longitude Leg Dist Tot Dist Heading (true) Name
O ESGG APT - 0 ft / 0 m 57.66284˚ 12.27982˚ - 0 nm - Goteborg Landvetter
MOKNI FIX - 21,500 ft / 6,553 m 57.64631˚ 15.06806˚ 89 nm 89 nm 89° / 92° -
O ESSV APT - 0 ft / 0 m 57.65641˚ 18.34245˚ 105 nm 194 nm 88° / 91° Visby

Altitude Profile

Advertisement - Login to hide

Weather


0- 5 10 15 20 25 30 35+ Temperature / ° C

Clouds and Precipitation
Forecast for 2017-12-18 12:00 UTC. Updated 2 hours ago

Ground ~20,000 ft ~40,000 ft Winds

ESGG

Details ICAO ESGG (GOT)
Name Goteborg Landvetter
Region Sweden
Timezone Europe/Stockholm (UTC+1.0)
Stats Elevation 506 ft / 154 m (AMSL)
Location 57.662836° 12.279819°
Runways 1
Magnetic Variation 3.717° E

METAR

ESGG 181050Z 18009KT 9999 SCT006 BKN009 01/00 Q1020 R21/290095

Decode

TAF

TAF TAF ESGG 180530Z 1806/1906 18007KT 8000 BR BKN003 TEMPO 1806/1811 4000 SCT005 BKN010 TEMPO 1811/1818 2500 -RASN BR OVC008 PROB40 1818/1906 0300 FG

Decode

Departure Runways

ID Width Length Bearing (true) Bearing (mag) Surface Threshold Offset Overrun Length
03 148 ft / 45 m 10,804 ft / 3,293 m 25.94° 22.22° Asphalt 0 ft / 0 m 207 ft / 63 m
21 148 ft / 45 m 10,804 ft / 3,293 m 205.96° 202.24° Asphalt 0 ft / 0 m 207 ft / 63 m

ESSV

Details ICAO ESSV (VBY)
Name Visby
Region Sweden
Timezone Europe/Stockholm (UTC+1.0)
Stats Elevation 164 ft / 50 m (AMSL)
Location 57.656405° 18.342448°
Runways 2
Magnetic Variation 5.915° E

METAR

ESSV 181050Z 23011KT 9999 BKN011 01/M01 Q1022 R21/71//87

Decode

TAF

Not found

Destination Runways

ID Width Length Bearing (true) Bearing (mag) Surface Threshold Offset Overrun Length
03 148 ft / 45 m 6,552 ft / 1,997 m 20.95° 15.04° Asphalt 0 ft / 0 m 0 ft / 0 m
10 131 ft / 40 m 3,599 ft / 1,097 m 101.41° 95.50° Grass 0 ft / 0 m 0 ft / 0 m
21 148 ft / 45 m 6,552 ft / 1,997 m 200.96° 195.05° Asphalt 0 ft / 0 m 0 ft / 0 m
28 131 ft / 40 m 3,599 ft / 1,097 m 281.43° 275.52° Grass 0 ft / 0 m 0 ft / 0 m

Approach Navaids

Runway Type Ident Frequency Range Bearing (true) Bearing (mag) Slope Elevation
21 Localiser SV 110.30 MHz 18 nm / 33 km 200.95° 195.04° - 164 ft / 50 m (AMSL)
21 Glidescope SV 110.30 MHz 10 nm / 19 km 200.95° 195.04° 3.00° 164 ft / 50 m (AMSL)

Popular Alternatives